createdAt,value
2023-02-19T01:23:12.855Z,514.00
2023-02-19T01:24:12.820Z,513.00
2023-02-19T01:25:12.780Z,515.00
2023-02-19T01:26:12.783Z,509.00
2023-02-19T01:27:12.698Z,512.00
2023-02-19T01:28:12.653Z,512.00
2023-02-19T01:29:12.631Z,515.00
2023-02-19T01:30:12.632Z,517.00
2023-02-19T01:31:13.092Z,516.00
2023-02-19T01:32:12.625Z,521.00
2023-02-19T01:33:12.449Z,517.00
2023-02-19T01:34:12.410Z,512.00
2023-02-19T01:35:12.363Z,521.00
2023-02-19T01:36:12.318Z,518.00
2023-02-19T01:37:12.291Z,517.00
2023-02-19T01:38:12.233Z,522.00
2023-02-19T01:39:12.213Z,519.00
2023-02-19T01:40:12.152Z,516.00
2023-02-19T01:41:12.397Z,516.00
2023-02-19T01:42:12.072Z,518.00
2023-02-19T01:43:12.024Z,520.00
2023-02-19T01:44:11.988Z,517.00
2023-02-19T01:45:11.944Z,519.00
2023-02-19T01:46:11.936Z,519.00
2023-02-19T01:47:11.866Z,521.00
2023-02-19T01:48:11.826Z,520.00
2023-02-19T01:49:11.774Z,523.00
2023-02-19T01:50:11.737Z,523.00
2023-02-19T01:51:12.058Z,519.00
2023-02-19T01:52:11.634Z,519.00
2023-02-19T01:53:11.601Z,523.00
2023-02-19T01:54:11.554Z,517.00
2023-02-19T01:55:11.517Z,515.00
2023-02-19T01:56:11.495Z,521.00
2023-02-19T01:57:11.438Z,521.00
2023-02-19T01:58:11.377Z,518.00
2023-02-19T01:59:11.303Z,524.00
2023-02-19T02:00:11.267Z,526.00
2023-02-19T02:01:11.692Z,518.00
2023-02-19T02:02:11.208Z,518.00
2023-02-19T02:03:11.125Z,524.00
2023-02-19T02:04:11.182Z,524.00
2023-02-19T02:05:11.030Z,521.00
2023-02-19T02:06:10.981Z,516.00
2023-02-19T02:07:10.931Z,519.00
2023-02-19T02:08:10.899Z,517.00
2023-02-19T02:09:10.848Z,518.00
2023-02-19T02:10:10.836Z,528.00
2023-02-19T02:11:11.018Z,517.00
2023-02-19T02:12:10.749Z,522.00
2023-02-19T02:13:10.731Z,522.00
2023-02-19T02:14:10.701Z,520.00
2023-02-19T02:15:10.661Z,526.00
2023-02-19T02:16:10.680Z,523.00
2023-02-19T02:17:10.633Z,522.00
2023-02-19T02:18:10.589Z,518.00
2023-02-19T02:19:10.561Z,520.00
2023-02-19T02:20:10.520Z,517.00
2023-02-19T02:21:10.817Z,524.00
2023-02-19T02:22:10.460Z,518.00
2023-02-19T02:23:10.450Z,522.00
2023-02-19T02:24:10.423Z,523.00
2023-02-19T02:25:10.397Z,523.00
2023-02-19T02:26:10.365Z,526.00
2023-02-19T02:27:10.359Z,518.00
2023-02-19T02:28:10.337Z,520.00
2023-02-19T02:29:10.298Z,524.00
2023-02-19T02:30:10.289Z,523.00
2023-02-19T02:31:10.610Z,517.00
2023-02-19T02:32:10.276Z,525.00
2023-02-19T02:33:10.164Z,519.00
2023-02-19T02:34:10.107Z,522.00
2023-02-19T02:35:10.088Z,520.00
2023-02-19T02:36:10.072Z,518.00
2023-02-19T02:37:10.044Z,517.00
2023-02-19T02:38:10.004Z,517.00
2023-02-19T02:39:09.949Z,521.00
2023-02-19T02:40:09.885Z,520.00
2023-02-19T02:41:10.128Z,522.00
2023-02-19T02:42:09.818Z,519.00
2023-02-19T02:43:09.792Z,517.00
2023-02-19T02:44:09.739Z,518.00
2023-02-19T02:45:09.722Z,517.00
2023-02-19T02:46:09.694Z,521.00
2023-02-19T02:47:09.661Z,517.00
2023-02-19T02:48:09.598Z,522.00
2023-02-19T02:49:09.550Z,516.00
2023-02-19T02:50:09.517Z,524.00
2023-02-19T02:51:09.789Z,521.00
2023-02-19T02:52:09.405Z,524.00
2023-02-19T02:53:09.358Z,520.00
2023-02-19T02:54:09.340Z,525.00
2023-02-19T02:55:09.295Z,519.00
2023-02-19T02:56:09.246Z,514.00
2023-02-19T02:57:09.201Z,521.00
2023-02-19T02:58:09.150Z,515.00
2023-02-19T02:59:09.110Z,516.00
2023-02-19T03:00:09.054Z,514.00
2023-02-19T03:01:09.571Z,517.00
2023-02-19T03:02:09.584Z,520.00
2023-02-19T03:03:08.897Z,515.00
2023-02-19T03:04:08.837Z,513.00
2023-02-19T03:05:08.810Z,515.00
2023-02-19T03:06:08.736Z,508.00
2023-02-19T03:07:08.690Z,514.00
2023-02-19T03:08:08.633Z,515.00
2023-02-19T03:09:08.608Z,519.00
2023-02-19T03:10:08.624Z,515.00
2023-02-19T03:11:08.887Z,514.00
2023-02-19T03:12:08.482Z,515.00
2023-02-19T03:13:08.439Z,513.00
2023-02-19T03:14:08.385Z,514.00
2023-02-19T03:15:08.323Z,509.00
2023-02-19T03:16:08.295Z,516.00
2023-02-19T03:17:08.224Z,518.00
2023-02-19T03:18:08.184Z,513.00
2023-02-19T03:19:08.137Z,515.00
2023-02-19T03:20:08.094Z,512.00
2023-02-19T03:21:08.536Z,511.00
2023-02-19T03:22:07.983Z,513.00
2023-02-19T03:23:07.933Z,514.00
2023-02-19T03:24:07.880Z,514.00
2023-02-19T03:25:07.828Z,517.00
2023-02-19T04:14:05.585Z,513.00
2023-02-19T04:15:05.537Z,505.00
2023-02-19T04:16:05.486Z,508.00
2023-02-19T04:17:05.438Z,511.00
2023-02-19T04:18:05.400Z,513.00
2023-02-19T04:19:05.368Z,514.00
2023-02-19T04:20:05.345Z,509.00
2023-02-19T04:21:05.319Z,510.00
2023-02-19T04:22:05.286Z,513.00
2023-02-19T04:23:05.267Z,510.00
2023-02-19T04:24:05.270Z,509.00
2023-02-19T04:25:05.225Z,514.00
2023-02-19T04:26:05.171Z,511.00
2023-02-19T04:27:05.141Z,514.00
2023-02-19T04:28:05.109Z,514.00
2023-02-19T04:29:05.063Z,514.00
2023-02-19T04:30:05.040Z,512.00
2023-02-19T04:31:04.997Z,513.00
2023-02-19T04:32:04.965Z,512.00
2023-02-19T04:33:04.888Z,516.00
2023-02-19T04:34:04.838Z,511.00
2023-02-19T04:35:04.793Z,514.00
2023-02-19T04:36:04.762Z,517.00
2023-02-19T04:37:04.721Z,513.00
2023-02-19T04:38:04.683Z,510.00
2023-02-19T04:39:04.649Z,514.00
2023-02-19T04:40:04.617Z,512.00
2023-02-19T04:41:04.572Z,508.00
2023-02-19T04:42:04.529Z,515.00
2023-02-19T04:43:04.500Z,512.00
2023-02-19T04:44:04.487Z,515.00
2023-02-19T04:45:04.460Z,510.00
2023-02-19T04:46:04.540Z,509.00
2023-02-19T04:47:04.386Z,508.00
2023-02-19T04:48:04.333Z,511.00
2023-02-19T04:49:04.271Z,507.00
2023-02-19T04:50:04.226Z,511.00
2023-02-19T04:51:04.191Z,513.00
2023-02-19T04:52:04.126Z,517.00
2023-02-19T04:53:04.078Z,508.00
2023-02-19T04:54:04.030Z,508.00
2023-02-19T04:55:03.996Z,512.00
2023-02-19T04:56:03.957Z,509.00
2023-02-19T04:57:03.924Z,512.00
2023-02-19T04:58:03.889Z,510.00
2023-02-19T04:59:03.843Z,511.00
2023-02-19T05:00:03.808Z,513.00
2023-02-19T05:01:03.748Z,506.00
2023-02-19T05:02:03.702Z,516.00
2023-02-19T05:03:03.681Z,512.00
2023-02-19T05:04:03.664Z,508.00
2023-02-19T05:05:03.597Z,515.00
2023-02-19T06:03:01.410Z,503.00
2023-02-19T06:04:01.330Z,506.00
2023-02-19T06:05:01.254Z,511.00
2023-02-19T06:06:01.202Z,513.00
2023-02-19T06:07:01.142Z,511.00
2023-02-19T06:08:01.108Z,511.00
2023-02-19T06:09:01.051Z,513.00
2023-02-19T06:10:01.001Z,511.00
2023-02-19T06:11:00.946Z,510.00
2023-02-19T06:12:00.909Z,511.00
2023-02-19T06:13:00.859Z,512.00
2023-02-19T06:14:00.820Z,514.00
2023-02-19T06:15:01.153Z,508.00
2023-02-19T06:16:00.781Z,511.00
2023-02-19T06:17:00.692Z,508.00
2023-02-19T06:18:00.635Z,505.00
2023-02-19T06:19:00.593Z,507.00
2023-02-19T06:20:00.524Z,508.00
2023-02-19T06:21:00.488Z,508.00
2023-02-19T06:22:00.446Z,509.00
2023-02-19T06:23:00.400Z,508.00
2023-02-19T06:24:00.354Z,508.00
2023-02-19T06:25:00.324Z,509.00
2023-02-19T06:26:00.277Z,510.00
2023-02-19T06:27:00.237Z,508.00
2023-02-19T06:28:00.189Z,511.00
2023-02-19T06:29:00.140Z,510.00
2023-02-19T06:30:00.193Z,507.00
2023-02-19T06:31:00.092Z,505.00
2023-02-19T06:32:00.143Z,509.00
2023-02-19T06:32:59.975Z,508.00
2023-02-19T06:33:59.926Z,507.00
2023-02-19T06:34:59.879Z,515.00
2023-02-19T06:35:59.827Z,506.00
2023-02-19T06:36:59.776Z,505.00
2023-02-19T06:37:59.739Z,507.00
2023-02-19T06:38:59.667Z,511.00
2023-02-19T06:39:59.638Z,516.00
2023-02-19T06:40:59.597Z,511.00
2023-02-19T06:41:59.552Z,510.00
2023-02-19T06:42:59.501Z,506.00
2023-02-19T06:43:59.456Z,509.00
2023-02-19T06:44:59.405Z,508.00
2023-02-19T06:45:59.367Z,504.00
2023-02-19T06:46:59.346Z,508.00
2023-02-19T06:47:59.328Z,513.00
2023-02-19T06:48:59.307Z,513.00
2023-02-19T06:49:59.262Z,513.00
2023-02-19T06:50:59.210Z,511.00
2023-02-19T06:51:59.162Z,507.00
2023-02-19T06:52:59.141Z,512.00
2023-02-19T06:53:59.108Z,512.00
2023-02-19T06:54:59.053Z,508.00
2023-02-19T06:55:59.010Z,507.00
2023-02-19T06:56:58.964Z,511.00
2023-02-19T06:57:58.896Z,508.00
2023-02-19T06:58:58.850Z,511.00
2023-02-19T06:59:58.806Z,515.00
2023-02-19T07:00:58.815Z,514.00
2023-02-19T07:01:58.757Z,510.00
2023-02-19T07:02:58.709Z,511.00
2023-02-19T07:03:58.747Z,509.00
2023-02-19T07:04:58.613Z,515.00
2023-02-19T07:05:58.558Z,512.00
2023-02-19T07:06:58.532Z,510.00
2023-02-19T07:07:58.500Z,505.00
2023-02-19T07:08:58.473Z,512.00
2023-02-19T07:09:58.424Z,513.00
2023-02-19T07:10:58.404Z,511.00
2023-02-19T07:11:58.354Z,506.00
2023-02-19T07:12:58.349Z,512.00
2023-02-19T07:13:58.324Z,507.00
2023-02-19T07:14:58.294Z,509.00
2023-02-19T07:15:58.319Z,510.00
2023-02-19T07:16:58.280Z,507.00
2023-02-19T07:17:58.239Z,509.00
2023-02-19T07:18:58.227Z,513.00
2023-02-19T07:19:58.197Z,512.00
2023-02-19T07:20:58.168Z,512.00
2023-02-19T07:21:58.161Z,510.00
2023-02-19T07:22:58.155Z,511.00
2023-02-19T07:23:58.193Z,513.00
2023-02-19T07:24:58.137Z,508.00
2023-02-19T07:25:58.124Z,514.00
2023-02-19T07:26:58.114Z,507.00
2023-02-19T07:27:58.104Z,508.00
2023-02-19T07:28:58.101Z,506.00
2023-02-19T07:29:58.064Z,509.00
2023-02-19T07:30:58.077Z,503.00
2023-02-19T07:31:58.059Z,512.00
2023-02-19T07:32:58.016Z,508.00
2023-02-19T07:33:57.983Z,504.00
2023-02-19T07:34:57.948Z,509.00
2023-02-19T07:35:57.914Z,511.00
2023-02-19T07:36:57.873Z,503.00
2023-02-19T07:37:57.843Z,506.00
2023-02-19T07:38:57.833Z,508.00
2023-02-19T07:39:57.824Z,507.00
2023-02-19T07:40:57.820Z,504.00
2023-02-19T09:18:55.582Z,507.00
2023-02-19T09:19:55.578Z,509.00
2023-02-19T09:20:55.555Z,506.00
2023-02-19T09:21:55.550Z,509.00
2023-02-19T09:22:55.539Z,508.00
2023-02-19T09:23:55.525Z,502.00
2023-02-19T09:25:55.502Z,505.00
2023-02-19T09:26:55.480Z,513.00
2023-02-19T09:27:55.470Z,506.00
2023-02-19T09:28:55.448Z,506.00
2023-02-19T09:29:55.425Z,510.00
2023-02-19T09:30:55.521Z,507.00
2023-02-19T09:31:55.412Z,501.00
2023-02-19T09:32:55.384Z,508.00
2023-02-19T09:33:55.370Z,508.00
2023-02-19T09:34:55.340Z,504.00
2023-02-19T09:35:55.324Z,500.00
2023-02-19T09:36:55.311Z,508.00
2023-02-19T09:37:55.268Z,506.00
2023-02-19T09:38:55.231Z,510.00
2023-02-19T09:39:55.200Z,509.00
2023-02-19T09:40:55.158Z,503.00
2023-02-19T09:41:55.098Z,502.00
2023-02-19T09:42:55.031Z,523.00
2023-02-19T09:43:54.939Z,533.00
2023-02-19T09:44:54.881Z,531.00
2023-02-19T09:45:54.870Z,536.00
2023-02-19T09:46:54.806Z,542.00
2023-02-19T09:47:54.756Z,550.00
2023-02-19T09:48:54.708Z,548.00
2023-02-19T09:49:54.629Z,550.00
2023-02-19T09:50:54.565Z,554.00
2023-02-19T11:00:51.046Z,506.00
2023-02-19T11:01:50.984Z,506.00
2023-02-19T11:02:50.902Z,502.00
2023-02-19T11:03:50.827Z,506.00
2023-02-19T11:04:50.744Z,503.00
2023-02-19T11:05:50.688Z,507.00
2023-02-19T11:06:50.602Z,502.00
2023-02-19T11:07:50.538Z,502.00
2023-02-19T11:08:50.425Z,505.00
2023-02-19T11:09:50.350Z,505.00
2023-02-19T11:10:50.265Z,500.00
2023-02-19T11:11:50.266Z,505.00
2023-02-19T11:12:50.159Z,502.00
2023-02-19T11:13:50.103Z,502.00
2023-02-19T11:14:50.029Z,510.00
2023-02-19T11:15:49.947Z,510.00
2023-02-19T11:16:49.843Z,512.00
2023-02-19T11:35:48.470Z,513.00
2023-02-19T11:36:48.395Z,508.00
2023-02-19T11:37:48.310Z,504.00
2023-02-19T11:38:48.247Z,506.00
2023-02-19T11:39:48.161Z,503.00
2023-02-19T11:40:48.090Z,506.00
2023-02-19T11:41:48.026Z,508.00
2023-02-19T11:42:47.959Z,505.00
2023-02-19T11:43:47.899Z,503.00
2023-02-19T11:44:47.842Z,511.00
2023-02-19T14:08:43.674Z,509.00
2023-02-19T14:09:43.655Z,509.00
2023-02-19T14:10:43.621Z,509.00
2023-02-19T14:11:43.627Z,508.00
2023-02-19T14:12:43.605Z,513.00
2023-02-19T14:13:43.610Z,506.00
2023-02-19T14:14:43.611Z,508.00
2023-02-19T14:15:43.692Z,508.00
2023-02-19T14:17:43.577Z,504.00
2023-02-19T14:18:43.577Z,506.00
2023-02-19T14:19:43.559Z,508.00
2023-02-19T14:20:43.545Z,505.00
2023-02-19T14:21:43.532Z,504.00
2023-02-19T14:22:43.521Z,502.00
2023-02-19T14:23:43.540Z,504.00
2023-02-19T14:24:43.504Z,504.00
2023-02-19T14:25:43.506Z,507.00
2023-02-19T14:26:43.497Z,503.00
2023-02-19T14:27:43.486Z,506.00
2023-02-19T14:28:43.476Z,502.00
2023-02-19T14:29:43.458Z,500.00
2023-02-19T14:30:43.440Z,503.00
2023-02-19T14:31:43.588Z,506.00
2023-02-19T14:32:45.121Z,505.00
2023-02-19T14:34:43.325Z,506.00
2023-02-19T14:35:43.316Z,508.00
2023-02-19T14:36:43.266Z,504.00
2023-02-19T14:37:43.246Z,503.00
2023-02-19T14:38:43.226Z,509.00
2023-02-19T14:39:43.210Z,505.00
2023-02-19T14:40:43.216Z,506.00
2023-02-19T14:41:43.171Z,513.00
2023-02-19T14:42:43.146Z,516.00
2023-02-19T14:43:43.134Z,514.00
2023-02-19T14:44:43.093Z,507.00
2023-02-19T14:45:43.058Z,512.00
2023-02-19T14:46:43.076Z,507.00
2023-02-19T14:47:43.838Z,518.00
2023-02-19T14:48:42.935Z,512.00
2023-02-19T14:49:42.872Z,516.00
2023-02-19T14:50:42.848Z,519.00
2023-02-19T14:51:42.813Z,524.00
2023-02-19T14:52:42.788Z,520.00
2023-02-19T14:53:42.727Z,518.00
2023-02-19T14:54:42.693Z,520.00
2023-02-19T14:55:42.726Z,520.00
2023-02-19T14:56:42.615Z,520.00
2023-02-19T14:57:42.562Z,531.00
2023-02-19T14:58:42.526Z,522.00
2023-02-19T14:59:42.495Z,526.00
2023-02-19T15:00:42.455Z,526.00
2023-02-19T15:01:42.447Z,528.00
2023-02-19T15:02:42.379Z,525.00
2023-02-19T15:03:42.346Z,529.00
2023-02-19T15:04:42.343Z,525.00
2023-02-19T15:05:42.268Z,525.00
2023-02-19T15:06:42.223Z,530.00
2023-02-19T15:07:42.181Z,532.00
2023-02-19T15:08:42.153Z,521.00
2023-02-19T15:09:42.124Z,523.00
2023-02-19T15:10:42.074Z,530.00
2023-02-19T15:11:42.046Z,531.00
2023-02-19T15:12:42.006Z,528.00
2023-02-19T15:13:41.971Z,528.00
2023-02-19T15:14:41.933Z,534.00
2023-02-19T15:15:41.944Z,535.00
2023-02-19T15:16:41.844Z,529.00
2023-02-19T15:17:41.815Z,530.00
2023-02-19T15:18:41.752Z,533.00
2023-02-19T15:19:41.723Z,525.00
2023-02-19T15:20:41.682Z,531.00
2023-02-19T15:21:41.644Z,533.00
2023-02-19T15:22:41.618Z,530.00
2023-02-19T15:23:41.572Z,534.00
2023-02-19T15:24:41.556Z,531.00
2023-02-19T16:01:39.877Z,548.00
2023-02-19T16:02:39.849Z,550.00
2023-02-19T16:03:39.781Z,549.00
2023-02-19T16:04:39.749Z,554.00
2023-02-19T16:05:39.730Z,553.00
2023-02-19T16:06:39.713Z,557.00
2023-02-19T16:07:39.694Z,555.00
2023-02-19T16:08:40.484Z,554.00
2023-02-19T16:09:39.591Z,557.00
2023-02-19T16:10:39.558Z,562.00
2023-02-19T16:11:39.497Z,561.00
2023-02-19T16:12:39.422Z,559.00
2023-02-19T16:13:39.377Z,559.00
2023-02-19T16:14:39.341Z,557.00
2023-02-19T16:15:39.323Z,559.00
2023-02-19T16:16:39.279Z,560.00
2023-02-19T16:17:39.242Z,563.00
2023-02-19T16:18:39.218Z,563.00
2023-02-19T16:19:39.169Z,569.00
2023-02-19T16:20:39.204Z,570.00
2023-02-19T16:21:39.098Z,563.00
2023-02-19T16:22:40.007Z,563.00
2023-02-19T16:23:38.943Z,564.00
2023-02-19T16:24:38.863Z,566.00
2023-02-19T16:25:41.537Z,568.00
2023-02-19T16:26:38.702Z,578.00
2023-02-19T16:27:38.638Z,573.00
2023-02-19T16:28:38.567Z,574.00
2023-02-19T16:29:38.558Z,571.00
2023-02-19T16:30:38.470Z,571.00
2023-02-19T16:31:38.400Z,578.00
2023-02-19T16:32:38.254Z,573.00
2023-02-19T16:33:38.170Z,573.00
2023-02-19T16:34:38.184Z,579.00
2023-02-19T16:35:38.021Z,574.00
2023-02-19T16:36:37.992Z,572.00
2023-02-19T16:37:37.877Z,575.00
2023-02-19T19:03:29.368Z,593.00
2023-02-19T19:07:29.170Z,591.00
2023-02-19T19:14:28.845Z,594.00
2023-02-19T19:15:28.826Z,592.00
2023-02-19T19:16:28.772Z,598.00
2023-02-19T19:17:28.722Z,601.00
2023-02-19T19:18:28.674Z,594.00
2023-02-19T19:19:28.615Z,600.00
2023-02-19T19:20:28.574Z,597.00
2023-02-19T19:21:28.522Z,594.00
2023-02-19T19:22:28.490Z,601.00
2023-02-19T19:23:28.476Z,596.00
2023-02-19T19:24:28.458Z,595.00
2023-02-19T19:25:28.413Z,597.00
2023-02-19T19:26:28.378Z,599.00
2023-02-19T19:27:28.355Z,600.00
2023-02-19T19:28:28.324Z,595.00
2023-02-19T19:29:28.272Z,596.00
2023-02-19T19:30:28.254Z,598.00
2023-02-19T19:31:28.277Z,596.00
2023-02-19T19:32:28.178Z,601.00
2023-02-19T19:33:28.309Z,597.00
2023-02-19T19:34:28.082Z,600.00
2023-02-19T19:35:28.039Z,598.00
2023-02-19T19:36:27.988Z,601.00
2023-02-19T19:37:28.670Z,600.00
2023-02-19T19:38:27.914Z,593.00
2023-02-19T19:39:27.889Z,600.00
2023-02-19T19:40:27.853Z,596.00
2023-02-19T19:41:27.850Z,601.00
2023-02-19T19:42:27.815Z,596.00
2023-02-19T22:49:19.793Z,609.00
2023-02-19T22:53:19.682Z,606.00
2023-02-19T23:01:19.513Z,613.00
2023-02-19T23:02:19.431Z,609.00
2023-02-19T23:03:19.395Z,607.00
2023-02-19T23:04:19.450Z,609.00
2023-02-19T23:05:19.312Z,604.00
2023-02-19T23:06:19.284Z,606.00
2023-02-19T23:07:19.230Z,605.00
2023-02-19T23:08:19.189Z,608.00
2023-02-19T23:09:19.153Z,608.00
2023-02-19T23:10:19.112Z,608.00
2023-02-19T23:11:19.084Z,605.00
2023-02-19T23:12:19.027Z,604.00
2023-02-19T23:13:18.988Z,608.00
2023-02-19T23:14:18.953Z,609.00
2023-02-19T23:15:18.917Z,609.00
2023-02-19T23:16:18.897Z,608.00
2023-02-19T23:17:18.833Z,610.00
2023-02-19T23:18:18.797Z,608.00
2023-02-19T23:19:18.769Z,610.00
2023-02-19T23:20:18.718Z,606.00
2023-02-19T23:21:18.678Z,609.00
2023-02-19T23:22:18.638Z,603.00
2023-02-19T23:23:18.598Z,608.00
2023-02-19T23:24:18.557Z,608.00
2023-02-19T23:25:18.523Z,603.00
2023-02-19T23:26:18.484Z,605.00
2023-02-19T23:27:18.447Z,605.00
2023-02-19T23:36:18.100Z,609.00
2023-02-19T23:37:18.070Z,608.00
2023-02-19T23:38:18.028Z,608.00
2023-02-19T23:39:18.006Z,611.00
2023-02-19T23:40:17.962Z,612.00
2023-02-19T23:41:17.912Z,610.00
2023-02-19T23:42:17.902Z,603.00
2023-02-19T23:43:17.828Z,605.00
